sensor_id;sensor_type;location;lat;lon;timestamp;temperature;humidity
981;DHT22;479;53.514;9.994;2022-08-01T00:01:34;18.90;99.90
981;DHT22;479;53.514;9.994;2022-08-01T00:04:01;18.90;99.90
981;DHT22;479;53.514;9.994;2022-08-01T00:06:30;18.90;99.90
981;DHT22;479;53.514;9.994;2022-08-01T00:08:57;18.80;99.90
981;DHT22;479;53.514;9.994;2022-08-01T00:11:24;18.90;99.90
981;DHT22;479;53.514;9.994;2022-08-01T00:13:50;18.90;99.90
981;DHT22;479;53.514;9.994;2022-08-01T00:16:18;18.80;99.90
981;DHT22;479;53.514;9.994;2022-08-01T00:18:44;18.80;99.90
981;DHT22;479;53.514;9.994;2022-08-01T00:21:11;18.80;99.90
981;DHT22;479;53.514;9.994;2022-08-01T00:23:39;18.80;99.90
981;DHT22;479;53.514;9.994;2022-08-01T00:26:06;18.80;99.90
981;DHT22;479;53.514;9.994;2022-08-01T00:28:33;18.80;99.90
981;DHT22;479;53.514;9.994;2022-08-01T00:31:00;18.90;99.90
981;DHT22;479;53.514;9.994;2022-08-01T00:33:27;18.90;99.90
981;DHT22;479;53.514;9.994;2022-08-01T00:35:54;18.90;99.90
981;DHT22;479;53.514;9.994;2022-08-01T00:38:21;19.00;99.90
981;DHT22;479;53.514;9.994;2022-08-01T00:40:50;19.00;99.90
981;DHT22;479;53.514;9.994;2022-08-01T00:43:17;19.00;99.90
981;DHT22;479;53.514;9.994;2022-08-01T00:45:44;19.00;99.90
981;DHT22;479;53.514;9.994;2022-08-01T00:48:11;18.90;99.90
981;DHT22;479;53.514;9.994;2022-08-01T00:50:38;18.90;99.90
981;DHT22;479;53.514;9.994;2022-08-01T00:53:05;18.90;99.90
981;DHT22;479;53.514;9.994;2022-08-01T00:55:32;18.90;99.90
981;DHT22;479;53.514;9.994;2022-08-01T00:58:00;18.90;99.90
981;DHT22;479;53.514;9.994;2022-08-01T01:00:27;18.90;99.90
981;DHT22;479;53.514;9.994;2022-08-01T01:02:54;19.00;99.90
981;DHT22;479;53.514;9.994;2022-08-01T01:05:21;19.00;99.90
981;DHT22;479;53.514;9.994;2022-08-01T01:07:52;19.00;99.90
981;DHT22;479;53.514;9.994;2022-08-01T01:10:25;18.90;99.90
981;DHT22;479;53.514;9.994;2022-08-01T01:12:59;18.90;99.90
981;DHT22;479;53.514;9.994;2022-08-01T01:15:33;18.90;99.90
981;DHT22;479;53.514;9.994;2022-08-01T01:18:04;18.90;99.90
981;DHT22;479;53.514;9.994;2022-08-01T01:20:36;18.80;99.90
981;DHT22;479;53.514;9.994;2022-08-01T01:23:21;18.90;99.90
981;DHT22;479;53.514;9.994;2022-08-01T01:26:04;18.90;99.90
981;DHT22;479;53.514;9.994;2022-08-01T01:28:55;18.90;99.90
981;DHT22;479;53.514;9.994;2022-08-01T01:31:25;18.80;99.90
981;DHT22;479;53.514;9.994;2022-08-01T01:33:53;18.80;99.90
981;DHT22;479;53.514;9.994;2022-08-01T01:36:21;18.90;99.90
981;DHT22;479;53.514;9.994;2022-08-01T01:38:49;18.90;99.90
981;DHT22;479;53.514;9.994;2022-08-01T01:41:18;18.90;99.90
981;DHT22;479;53.514;9.994;2022-08-01T01:43:46;18.90;99.90
981;DHT22;479;53.514;9.994;2022-08-01T01:46:19;18.90;99.90
981;DHT22;479;53.514;9.994;2022-08-01T01:48:48;18.90;99.90
981;DHT22;479;53.514;9.994;2022-08-01T01:51:17;18.80;99.90
981;DHT22;479;53.514;9.994;2022-08-01T01:53:45;18.80;99.90
981;DHT22;479;53.514;9.994;2022-08-01T01:56:16;18.80;99.90
981;DHT22;479;53.514;9.994;2022-08-01T01:58:44;18.80;99.90
981;DHT22;479;53.514;9.994;2022-08-01T02:01:12;18.80;99.90
981;DHT22;479;53.514;9.994;2022-08-01T02:03:41;18.80;99.90
981;DHT22;479;53.514;9.994;2022-08-01T02:06:11;18.80;99.90
981;DHT22;479;53.514;9.994;2022-08-01T02:08:40;18.70;99.90
981;DHT22;479;53.514;9.994;2022-08-01T02:11:08;18.70;99.90
981;DHT22;479;53.514;9.994;2022-08-01T02:13:52;18.70;99.90
981;DHT22;479;53.514;9.994;2022-08-01T02:16:22;18.70;99.90
981;DHT22;479;53.514;9.994;2022-08-01T02:18:51;18.70;99.90
981;DHT22;479;53.514;9.994;2022-08-01T02:21:25;18.70;99.90
981;DHT22;479;53.514;9.994;2022-08-01T02:23:54;18.70;99.90
981;DHT22;479;53.514;9.994;2022-08-01T02:26:23;18.60;99.90
981;DHT22;479;53.514;9.994;2022-08-01T02:28:53;18.70;99.90
981;DHT22;479;53.514;9.994;2022-08-01T02:31:22;18.70;99.90
981;DHT22;479;53.514;9.994;2022-08-01T02:33:55;18.60;99.90
981;DHT22;479;53.514;9.994;2022-08-01T02:36:25;18.60;99.90
981;DHT22;479;53.514;9.994;2022-08-01T02:38:54;18.60;99.90
981;DHT22;479;53.514;9.994;2022-08-01T02:41:24;18.60;99.90
981;DHT22;479;53.514;9.994;2022-08-01T02:43:58;18.60;99.90
981;DHT22;479;53.514;9.994;2022-08-01T02:46:29;18.60;99.90
981;DHT22;479;53.514;9.994;2022-08-01T02:49:01;18.70;99.90
981;DHT22;479;53.514;9.994;2022-08-01T02:51:30;18.60;99.90
981;DHT22;479;53.514;9.994;2022-08-01T02:53:59;18.60;99.90
981;DHT22;479;53.514;9.994;2022-08-01T02:56:27;18.60;99.90
981;DHT22;479;53.514;9.994;2022-08-01T02:59:03;18.60;99.90
981;DHT22;479;53.514;9.994;2022-08-01T03:01:31;18.60;99.90
981;DHT22;479;53.514;9.994;2022-08-01T03:04:00;18.60;99.90
981;DHT22;479;53.514;9.994;2022-08-01T03:06:28;18.60;99.90
981;DHT22;479;53.514;9.994;2022-08-01T03:08:56;18.60;99.90
981;DHT22;479;53.514;9.994;2022-08-01T03:11:24;18.50;99.90
981;DHT22;479;53.514;9.994;2022-08-01T03:13:54;18.60;99.90
981;DHT22;479;53.514;9.994;2022-08-01T03:16:23;18.60;99.90
981;DHT22;479;53.514;9.994;2022-08-01T03:18:53;18.60;99.90
981;DHT22;479;53.514;9.994;2022-08-01T03:21:24;18.60;99.90
981;DHT22;479;53.514;9.994;2022-08-01T03:23:53;18.60;99.90
981;DHT22;479;53.514;9.994;2022-08-01T03:26:26;18.60;99.90
981;DHT22;479;53.514;9.994;2022-08-01T03:28:56;18.60;99.90
981;DHT22;479;53.514;9.994;2022-08-01T03:31:24;18.60;99.90
981;DHT22;479;53.514;9.994;2022-08-01T03:33:52;18.50;99.90
981;DHT22;479;53.514;9.994;2022-08-01T03:36:23;18.60;99.90
981;DHT22;479;53.514;9.994;2022-08-01T03:38:52;18.60;99.90
981;DHT22;479;53.514;9.994;2022-08-01T03:41:24;18.60;99.90
981;DHT22;479;53.514;9.994;2022-08-01T03:43:56;18.60;99.90
981;DHT22;479;53.514;9.994;2022-08-01T03:46:29;18.60;99.90
981;DHT22;479;53.514;9.994;2022-08-01T03:49:01;18.70;99.90
981;DHT22;479;53.514;9.994;2022-08-01T03:51:32;18.80;99.90
981;DHT22;479;53.514;9.994;2022-08-01T03:54:00;18.70;99.90
981;DHT22;479;53.514;9.994;2022-08-01T03:56:28;18.70;99.90
981;DHT22;479;53.514;9.994;2022-08-01T03:58:58;18.60;99.90
981;DHT22;479;53.514;9.994;2022-08-01T04:01:26;18.60;99.90
981;DHT22;479;53.514;9.994;2022-08-01T04:03:54;18.60;99.90
981;DHT22;479;53.514;9.994;2022-08-01T04:06:21;18.60;99.90
981;DHT22;479;53.514;9.994;2022-08-01T04:08:50;18.60;99.90
981;DHT22;479;53.514;9.994;2022-08-01T04:11:23;18.60;99.90
981;DHT22;479;53.514;9.994;2022-08-01T04:13:51;18.70;99.90
981;DHT22;479;53.514;9.994;2022-08-01T04:16:18;18.70;99.90
981;DHT22;479;53.514;9.994;2022-08-01T04:18:45;18.70;99.90
981;DHT22;479;53.514;9.994;2022-08-01T04:21:12;18.80;99.90
981;DHT22;479;53.514;9.994;2022-08-01T04:23:41;18.70;99.90
981;DHT22;479;53.514;9.994;2022-08-01T04:26:12;18.70;99.90
981;DHT22;479;53.514;9.994;2022-08-01T04:28:40;18.70;99.90
981;DHT22;479;53.514;9.994;2022-08-01T04:31:09;18.80;99.90
981;DHT22;479;53.514;9.994;2022-08-01T04:33:38;18.80;99.90
981;DHT22;479;53.514;9.994;2022-08-01T04:36:09;18.80;99.90
981;DHT22;479;53.514;9.994;2022-08-01T04:38:37;18.80;99.90
981;DHT22;479;53.514;9.994;2022-08-01T04:41:06;18.90;99.90
981;DHT22;479;53.514;9.994;2022-08-01T04:43:35;18.80;99.90
981;DHT22;479;53.514;9.994;2022-08-01T04:46:02;18.80;99.90
981;DHT22;479;53.514;9.994;2022-08-01T04:48:31;18.80;99.90
981;DHT22;479;53.514;9.994;2022-08-01T04:50:59;18.80;99.90
981;DHT22;479;53.514;9.994;2022-08-01T04:53:26;18.80;99.90
981;DHT22;479;53.514;9.994;2022-08-01T04:55:53;18.80;99.90
981;DHT22;479;53.514;9.994;2022-08-01T04:58:21;18.90;99.90
981;DHT22;479;53.514;9.994;2022-08-01T05:00:49;18.70;99.90
981;DHT22;479;53.514;9.994;2022-08-01T05:03:16;18.60;99.90
981;DHT22;479;53.514;9.994;2022-08-01T05:05:43;18.60;99.90
981;DHT22;479;53.514;9.994;2022-08-01T05:08:10;18.60;99.90
981;DHT22;479;53.514;9.994;2022-08-01T05:10:37;18.60;99.90
981;DHT22;479;53.514;9.994;2022-08-01T05:13:04;18.60;99.90
981;DHT22;479;53.514;9.994;2022-08-01T05:15:32;18.60;99.90
981;DHT22;479;53.514;9.994;2022-08-01T05:18:00;18.60;99.90
981;DHT22;479;53.514;9.994;2022-08-01T05:20:26;18.50;99.90
981;DHT22;479;53.514;9.994;2022-08-01T05:22:53;18.60;99.90
981;DHT22;479;53.514;9.994;2022-08-01T05:25:20;18.60;99.90
981;DHT22;479;53.514;9.994;2022-08-01T05:27:49;18.50;99.90
981;DHT22;479;53.514;9.994;2022-08-01T05:30:16;18.50;99.90
981;DHT22;479;53.514;9.994;2022-08-01T05:32:43;18.50;99.90
981;DHT22;479;53.514;9.994;2022-08-01T05:35:11;18.50;99.90
981;DHT22;479;53.514;9.994;2022-08-01T05:37:38;18.50;99.90
981;DHT22;479;53.514;9.994;2022-08-01T05:40:05;18.60;99.90
981;DHT22;479;53.514;9.994;2022-08-01T05:42:32;18.60;99.90
981;DHT22;479;53.514;9.994;2022-08-01T05:44:59;18.60;99.90
981;DHT22;479;53.514;9.994;2022-08-01T05:47:26;18.60;99.90
981;DHT22;479;53.514;9.994;2022-08-01T05:49:53;18.60;99.90
981;DHT22;479;53.514;9.994;2022-08-01T05:52:21;18.70;99.90
981;DHT22;479;53.514;9.994;2022-08-01T05:54:48;18.60;99.90
981;DHT22;479;53.514;9.994;2022-08-01T05:57:15;18.60;99.90
981;DHT22;479;53.514;9.994;2022-08-01T05:59:42;18.70;99.90
981;DHT22;479;53.514;9.994;2022-08-01T06:02:09;18.60;99.90
981;DHT22;479;53.514;9.994;2022-08-01T06:04:35;18.50;99.90
981;DHT22;479;53.514;9.994;2022-08-01T06:07:02;18.50;99.90
981;DHT22;479;53.514;9.994;2022-08-01T06:09:31;18.60;99.90
981;DHT22;479;53.514;9.994;2022-08-01T06:11:58;18.70;99.90
981;DHT22;479;53.514;9.994;2022-08-01T06:14:24;18.70;99.90
981;DHT22;479;53.514;9.994;2022-08-01T06:16:51;18.60;99.90
981;DHT22;479;53.514;9.994;2022-08-01T06:19:18;18.70;99.90
981;DHT22;479;53.514;9.994;2022-08-01T06:21:45;18.70;99.90
981;DHT22;479;53.514;9.994;2022-08-01T06:24:12;18.70;99.90
981;DHT22;479;53.514;9.994;2022-08-01T06:26:40;18.80;99.90
981;DHT22;479;53.514;9.994;2022-08-01T06:29:08;18.70;99.90
981;DHT22;479;53.514;9.994;2022-08-01T06:31:34;18.90;99.90
981;DHT22;479;53.514;9.994;2022-08-01T06:34:01;18.90;99.90
981;DHT22;479;53.514;9.994;2022-08-01T06:36:28;18.80;99.90
981;DHT22;479;53.514;9.994;2022-08-01T06:38:55;18.80;99.90
981;DHT22;479;53.514;9.994;2022-08-01T06:41:22;18.80;99.90
981;DHT22;479;53.514;9.994;2022-08-01T06:43:50;18.90;99.90
981;DHT22;479;53.514;9.994;2022-08-01T06:46:17;19.00;99.90
981;DHT22;479;53.514;9.994;2022-08-01T06:48:44;19.00;99.90
981;DHT22;479;53.514;9.994;2022-08-01T06:51:11;19.00;99.90
981;DHT22;479;53.514;9.994;2022-08-01T06:53:41;19.10;99.90
981;DHT22;479;53.514;9.994;2022-08-01T06:56:07;19.00;99.90
981;DHT22;479;53.514;9.994;2022-08-01T06:58:35;19.00;99.90
981;DHT22;479;53.514;9.994;2022-08-01T07:01:04;18.90;99.90
981;DHT22;479;53.514;9.994;2022-08-01T07:03:33;18.90;99.90
981;DHT22;479;53.514;9.994;2022-08-01T07:06:00;18.80;99.90
981;DHT22;479;53.514;9.994;2022-08-01T07:08:27;18.90;99.90
981;DHT22;479;53.514;9.994;2022-08-01T07:10:54;19.00;99.90
981;DHT22;479;53.514;9.994;2022-08-01T07:13:25;19.00;99.90
981;DHT22;479;53.514;9.994;2022-08-01T07:15:52;19.00;99.90
981;DHT22;479;53.514;9.994;2022-08-01T07:18:20;19.10;99.90
981;DHT22;479;53.514;9.994;2022-08-01T07:20:48;19.10;99.90
981;DHT22;479;53.514;9.994;2022-08-01T07:23:15;19.10;99.90
981;DHT22;479;53.514;9.994;2022-08-01T07:25:42;19.10;99.90
981;DHT22;479;53.514;9.994;2022-08-01T07:28:09;19.10;99.90
981;DHT22;479;53.514;9.994;2022-08-01T07:30:36;19.00;99.90
981;DHT22;479;53.514;9.994;2022-08-01T07:33:03;19.00;99.90
981;DHT22;479;53.514;9.994;2022-08-01T07:35:31;18.90;99.90
981;DHT22;479;53.514;9.994;2022-08-01T07:37:58;18.90;99.90
981;DHT22;479;53.514;9.994;2022-08-01T07:40:25;18.90;99.90
981;DHT22;479;53.514;9.994;2022-08-01T07:42:52;18.80;99.90
981;DHT22;479;53.514;9.994;2022-08-01T07:45:19;18.70;99.90
981;DHT22;479;53.514;9.994;2022-08-01T07:47:46;18.60;99.90
981;DHT22;479;53.514;9.994;2022-08-01T07:50:15;18.60;99.90
981;DHT22;479;53.514;9.994;2022-08-01T07:52:43;18.50;99.90
981;DHT22;479;53.514;9.994;2022-08-01T07:55:11;18.70;99.90
981;DHT22;479;53.514;9.994;2022-08-01T07:57:38;18.70;99.90
981;DHT22;479;53.514;9.994;2022-08-01T08:00:06;18.70;99.90
981;DHT22;479;53.514;9.994;2022-08-01T08:02:34;18.80;99.90
981;DHT22;479;53.514;9.994;2022-08-01T08:05:02;19.00;99.90
981;DHT22;479;53.514;9.994;2022-08-01T08:07:29;19.10;99.90
981;DHT22;479;53.514;9.994;2022-08-01T08:09:57;19.30;99.90
981;DHT22;479;53.514;9.994;2022-08-01T08:12:25;19.40;99.90
981;DHT22;479;53.514;9.994;2022-08-01T08:14:52;19.50;99.90
981;DHT22;479;53.514;9.994;2022-08-01T08:17:19;19.50;99.90
981;DHT22;479;53.514;9.994;2022-08-01T08:19:46;19.40;99.90
981;DHT22;479;53.514;9.994;2022-08-01T08:22:13;19.40;99.90
981;DHT22;479;53.514;9.994;2022-08-01T08:24:39;19.50;99.90
981;DHT22;479;53.514;9.994;2022-08-01T08:27:08;19.50;99.90
981;DHT22;479;53.514;9.994;2022-08-01T08:29:35;19.50;99.90
981;DHT22;479;53.514;9.994;2022-08-01T08:32:02;19.50;99.90
981;DHT22;479;53.514;9.994;2022-08-01T08:34:29;19.40;99.90
981;DHT22;479;53.514;9.994;2022-08-01T08:36:56;19.50;99.90
981;DHT22;479;53.514;9.994;2022-08-01T08:39:23;19.60;99.90
981;DHT22;479;53.514;9.994;2022-08-01T08:41:50;19.80;99.90
981;DHT22;479;53.514;9.994;2022-08-01T08:44:19;19.90;99.90
981;DHT22;479;53.514;9.994;2022-08-01T08:46:51;20.50;99.90
981;DHT22;479;53.514;9.994;2022-08-01T08:49:21;20.80;99.90
981;DHT22;479;53.514;9.994;2022-08-01T08:51:51;21.60;99.90
981;DHT22;479;53.514;9.994;2022-08-01T08:54:20;22.10;99.90
981;DHT22;479;53.514;9.994;2022-08-01T08:56:49;22.60;99.90
981;DHT22;479;53.514;9.994;2022-08-01T08:59:17;22.90;99.90
981;DHT22;479;53.514;9.994;2022-08-01T09:01:46;23.40;99.90
981;DHT22;479;53.514;9.994;2022-08-01T09:04:13;23.20;99.90
981;DHT22;479;53.514;9.994;2022-08-01T09:06:40;23.60;99.90
981;DHT22;479;53.514;9.994;2022-08-01T09:09:08;23.70;96.20
981;DHT22;479;53.514;9.994;2022-08-01T09:11:36;23.90;92.80
981;DHT22;479;53.514;9.994;2022-08-01T09:14:08;24.00;92.20
981;DHT22;479;53.514;9.994;2022-08-01T09:16:38;24.00;84.40
981;DHT22;479;53.514;9.994;2022-08-01T09:19:09;24.00;88.10
981;DHT22;479;53.514;9.994;2022-08-01T09:21:36;24.60;87.70
981;DHT22;479;53.514;9.994;2022-08-01T09:24:12;24.60;81.30
981;DHT22;479;53.514;9.994;2022-08-01T09:26:39;24.90;79.00
981;DHT22;479;53.514;9.994;2022-08-01T09:29:08;24.70;80.90
981;DHT22;479;53.514;9.994;2022-08-01T09:31:44;25.00;82.80
981;DHT22;479;53.514;9.994;2022-08-01T09:34:14;25.20;82.60
981;DHT22;479;53.514;9.994;2022-08-01T09:36:49;24.90;86.90
981;DHT22;479;53.514;9.994;2022-08-01T09:39:22;24.70;91.60
981;DHT22;479;53.514;9.994;2022-08-01T09:41:49;24.80;93.20
981;DHT22;479;53.514;9.994;2022-08-01T09:44:17;24.80;93.60
981;DHT22;479;53.514;9.994;2022-08-01T09:46:53;24.50;96.60
981;DHT22;479;53.514;9.994;2022-08-01T09:49:29;24.20;99.90
981;DHT22;479;53.514;9.994;2022-08-01T09:51:58;23.80;99.90
981;DHT22;479;53.514;9.994;2022-08-01T09:54:30;23.90;99.90
981;DHT22;479;53.514;9.994;2022-08-01T09:57:08;23.80;99.90
981;DHT22;479;53.514;9.994;2022-08-01T09:59:36;23.90;99.90
981;DHT22;479;53.514;9.994;2022-08-01T10:02:06;23.70;99.90
981;DHT22;479;53.514;9.994;2022-08-01T10:04:35;23.90;99.90
981;DHT22;479;53.514;9.994;2022-08-01T10:07:06;24.20;99.90
981;DHT22;479;53.514;9.994;2022-08-01T10:09:35;24.60;99.70
981;DHT22;479;53.514;9.994;2022-08-01T10:12:03;24.80;97.80
981;DHT22;479;53.514;9.994;2022-08-01T10:14:30;24.60;99.30
981;DHT22;479;53.514;9.994;2022-08-01T10:16:59;24.60;98.80
981;DHT22;479;53.514;9.994;2022-08-01T10:19:28;24.40;99.80
981;DHT22;479;53.514;9.994;2022-08-01T10:21:57;24.70;98.20
981;DHT22;479;53.514;9.994;2022-08-01T10:24:27;24.70;98.40
981;DHT22;479;53.514;9.994;2022-08-01T10:26:57;24.80;94.40
981;DHT22;479;53.514;9.994;2022-08-01T10:29:35;24.60;96.70
981;DHT22;479;53.514;9.994;2022-08-01T10:32:05;24.90;94.50
981;DHT22;479;53.514;9.994;2022-08-01T10:34:35;25.20;91.70
981;DHT22;479;53.514;9.994;2022-08-01T10:37:05;25.20;89.80
981;DHT22;479;53.514;9.994;2022-08-01T10:39:32;25.30;88.30
981;DHT22;479;53.514;9.994;2022-08-01T10:42:00;25.30;87.70
981;DHT22;479;53.514;9.994;2022-08-01T10:44:28;25.30;81.90
981;DHT22;479;53.514;9.994;2022-08-01T10:47:01;24.80;86.10
981;DHT22;479;53.514;9.994;2022-08-01T10:49:32;24.70;84.20
981;DHT22;479;53.514;9.994;2022-08-01T10:52:04;24.90;85.10
981;DHT22;479;53.514;9.994;2022-08-01T10:54:39;24.80;85.10
981;DHT22;479;53.514;9.994;2022-08-01T10:57:07;25.30;83.80
981;DHT22;479;53.514;9.994;2022-08-01T10:59:36;25.70;76.20
981;DHT22;479;53.514;9.994;2022-08-01T11:02:25;25.50;76.00
981;DHT22;479;53.514;9.994;2022-08-01T11:04:56;25.10;77.10
981;DHT22;479;53.514;9.994;2022-08-01T11:07:39;25.30;76.60
981;DHT22;479;53.514;9.994;2022-08-01T11:10:15;25.40;71.00
981;DHT22;479;53.514;9.994;2022-08-01T11:12:44;25.30;72.30
981;DHT22;479;53.514;9.994;2022-08-01T11:15:22;25.40;68.60
981;DHT22;479;53.514;9.994;2022-08-01T11:17:54;25.60;64.60
981;DHT22;479;53.514;9.994;2022-08-01T11:20:23;25.40;67.80
981;DHT22;479;53.514;9.994;2022-08-01T11:23:16;25.20;71.90
981;DHT22;479;53.514;9.994;2022-08-01T11:26:12;24.70;70.60
981;DHT22;479;53.514;9.994;2022-08-01T11:28:40;24.80;67.50
981;DHT22;479;53.514;9.994;2022-08-01T11:31:28;25.10;67.40
981;DHT22;479;53.514;9.994;2022-08-01T11:33:55;25.70;65.90
981;DHT22;479;53.514;9.994;2022-08-01T11:36:23;25.50;66.60
981;DHT22;479;53.514;9.994;2022-08-01T11:39:18;25.10;68.20
981;DHT22;479;53.514;9.994;2022-08-01T11:41:47;24.80;70.00
981;DHT22;479;53.514;9.994;2022-08-01T11:44:16;24.60;69.40
981;DHT22;479;53.514;9.994;2022-08-01T11:46:48;24.20;71.30
981;DHT22;479;53.514;9.994;2022-08-01T11:49:23;24.00;69.90
981;DHT22;479;53.514;9.994;2022-08-01T11:51:57;23.80;70.00
981;DHT22;479;53.514;9.994;2022-08-01T11:54:27;23.80;73.30
981;DHT22;479;53.514;9.994;2022-08-01T11:56:59;23.90;74.40
981;DHT22;479;53.514;9.994;2022-08-01T11:59:27;23.80;74.00
981;DHT22;479;53.514;9.994;2022-08-01T12:01:54;23.90;76.70
981;DHT22;479;53.514;9.994;2022-08-01T12:04:21;24.10;76.80
981;DHT22;479;53.514;9.994;2022-08-01T12:06:47;24.00;78.90
981;DHT22;479;53.514;9.994;2022-08-01T12:09:16;24.10;77.30
981;DHT22;479;53.514;9.994;2022-08-01T12:11:45;23.90;78.90
981;DHT22;479;53.514;9.994;2022-08-01T12:14:17;23.70;82.30
981;DHT22;479;53.514;9.994;2022-08-01T12:16:52;23.40;81.90
981;DHT22;479;53.514;9.994;2022-08-01T12:19:20;23.40;77.90
981;DHT22;479;53.514;9.994;2022-08-01T12:22:10;23.30;79.10
981;DHT22;479;53.514;9.994;2022-08-01T12:24:39;23.10;87.00
981;DHT22;479;53.514;9.994;2022-08-01T12:27:10;23.00;90.00
981;DHT22;479;53.514;9.994;2022-08-01T12:29:49;23.40;90.00
981;DHT22;479;53.514;9.994;2022-08-01T12:32:25;23.60;86.30
981;DHT22;479;53.514;9.994;2022-08-01T12:34:53;23.50;83.00
981;DHT22;479;53.514;9.994;2022-08-01T12:37:21;23.60;84.30
981;DHT22;479;53.514;9.994;2022-08-01T12:39:48;23.60;86.40
981;DHT22;479;53.514;9.994;2022-08-01T12:42:16;23.60;82.50
981;DHT22;479;53.514;9.994;2022-08-01T12:44:45;23.50;80.70
981;DHT22;479;53.514;9.994;2022-08-01T12:47:15;23.40;82.40
981;DHT22;479;53.514;9.994;2022-08-01T12:49:43;23.50;82.10
981;DHT22;479;53.514;9.994;2022-08-01T12:52:11;23.30;78.00
981;DHT22;479;53.514;9.994;2022-08-01T12:55:00;23.20;80.30
981;DHT22;479;53.514;9.994;2022-08-01T12:57:28;23.40;79.80
981;DHT22;479;53.514;9.994;2022-08-01T13:00:05;23.30;79.20
981;DHT22;479;53.514;9.994;2022-08-01T13:02:33;23.00;78.60
981;DHT22;479;53.514;9.994;2022-08-01T13:05:00;22.90;79.70
981;DHT22;479;53.514;9.994;2022-08-01T13:07:36;22.90;79.10
981;DHT22;479;53.514;9.994;2022-08-01T13:10:03;23.10;79.20
981;DHT22;479;53.514;9.994;2022-08-01T13:12:32;22.90;76.20
981;DHT22;479;53.514;9.994;2022-08-01T13:14:59;22.90;77.60
981;DHT22;479;53.514;9.994;2022-08-01T13:17:32;22.90;71.50
981;DHT22;479;53.514;9.994;2022-08-01T13:20:01;22.50;72.80
981;DHT22;479;53.514;9.994;2022-08-01T13:22:32;22.40;74.60
981;DHT22;479;53.514;9.994;2022-08-01T13:25:10;22.40;75.40
981;DHT22;479;53.514;9.994;2022-08-01T13:27:38;22.50;77.60
981;DHT22;479;53.514;9.994;2022-08-01T13:30:15;22.50;74.70
981;DHT22;479;53.514;9.994;2022-08-01T13:32:42;22.40;76.40
981;DHT22;479;53.514;9.994;2022-08-01T13:35:12;22.50;76.00
981;DHT22;479;53.514;9.994;2022-08-01T13:37:40;22.60;75.60
981;DHT22;479;53.514;9.994;2022-08-01T13:40:10;22.60;74.30
981;DHT22;479;53.514;9.994;2022-08-01T13:42:38;22.60;69.90
981;DHT22;479;53.514;9.994;2022-08-01T13:45:06;22.20;70.50
981;DHT22;479;53.514;9.994;2022-08-01T13:47:36;22.20;72.60
981;DHT22;479;53.514;9.994;2022-08-01T13:50:04;22.10;73.50
981;DHT22;479;53.514;9.994;2022-08-01T13:52:31;22.20;73.80
981;DHT22;479;53.514;9.994;2022-08-01T13:54:58;22.30;71.50
981;DHT22;479;53.514;9.994;2022-08-01T13:57:25;22.20;70.60
981;DHT22;479;53.514;9.994;2022-08-01T13:59:54;22.20;70.40
981;DHT22;479;53.514;9.994;2022-08-01T14:02:21;22.10;70.80
981;DHT22;479;53.514;9.994;2022-08-01T14:04:48;22.00;69.80
981;DHT22;479;53.514;9.994;2022-08-01T14:07:14;22.00;70.30
981;DHT22;479;53.514;9.994;2022-08-01T14:09:41;22.10;69.30
981;DHT22;479;53.514;9.994;2022-08-01T14:12:08;22.10;70.10
981;DHT22;479;53.514;9.994;2022-08-01T14:14:35;22.10;68.20
981;DHT22;479;53.514;9.994;2022-08-01T14:17:05;22.30;68.50
981;DHT22;479;53.514;9.994;2022-08-01T14:19:31;22.20;69.20
981;DHT22;479;53.514;9.994;2022-08-01T14:21:58;22.30;69.70
981;DHT22;479;53.514;9.994;2022-08-01T14:24:25;22.20;70.10
981;DHT22;479;53.514;9.994;2022-08-01T14:26:52;22.00;71.00
981;DHT22;479;53.514;9.994;2022-08-01T14:29:19;21.90;71.20
981;DHT22;479;53.514;9.994;2022-08-01T14:31:46;21.90;73.60
981;DHT22;479;53.514;9.994;2022-08-01T14:34:14;22.00;70.60
981;DHT22;479;53.514;9.994;2022-08-01T14:36:42;22.00;69.60
981;DHT22;479;53.514;9.994;2022-08-01T14:39:09;21.90;70.40
981;DHT22;479;53.514;9.994;2022-08-01T14:41:36;21.90;69.70
981;DHT22;479;53.514;9.994;2022-08-01T14:44:03;21.60;70.90
981;DHT22;479;53.514;9.994;2022-08-01T14:46:30;21.60;71.50
981;DHT22;479;53.514;9.994;2022-08-01T14:48:57;21.70;71.30
981;DHT22;479;53.514;9.994;2022-08-01T14:51:25;21.50;70.90
981;DHT22;479;53.514;9.994;2022-08-01T14:53:52;21.70;71.40
981;DHT22;479;53.514;9.994;2022-08-01T14:56:19;21.50;72.00
981;DHT22;479;53.514;9.994;2022-08-01T14:58:46;21.60;71.70
981;DHT22;479;53.514;9.994;2022-08-01T15:01:13;21.40;71.60
981;DHT22;479;53.514;9.994;2022-08-01T15:03:40;21.50;72.70
981;DHT22;479;53.514;9.994;2022-08-01T15:06:07;21.50;71.90
981;DHT22;479;53.514;9.994;2022-08-01T15:08:38;21.50;71.70
981;DHT22;479;53.514;9.994;2022-08-01T15:11:05;21.40;72.30
981;DHT22;479;53.514;9.994;2022-08-01T15:13:34;21.40;73.50
981;DHT22;479;53.514;9.994;2022-08-01T15:16:01;21.20;72.50
981;DHT22;479;53.514;9.994;2022-08-01T15:18:28;21.00;75.20
981;DHT22;479;53.514;9.994;2022-08-01T15:20:55;21.20;75.80
981;DHT22;479;53.514;9.994;2022-08-01T15:23:23;21.30;75.80
981;DHT22;479;53.514;9.994;2022-08-01T15:25:51;21.30;75.00
981;DHT22;479;53.514;9.994;2022-08-01T15:28:18;21.30;73.80
981;DHT22;479;53.514;9.994;2022-08-01T15:30:45;21.30;74.90
981;DHT22;479;53.514;9.994;2022-08-01T15:33:12;21.30;73.80
981;DHT22;479;53.514;9.994;2022-08-01T15:35:39;21.30;74.90
981;DHT22;479;53.514;9.994;2022-08-01T15:38:08;21.30;74.80
981;DHT22;479;53.514;9.994;2022-08-01T15:40:35;21.30;76.20
981;DHT22;479;53.514;9.994;2022-08-01T15:43:03;21.30;75.50
981;DHT22;479;53.514;9.994;2022-08-01T15:45:30;21.20;78.90
981;DHT22;479;53.514;9.994;2022-08-01T15:47:57;21.10;79.90
981;DHT22;479;53.514;9.994;2022-08-01T15:50:24;21.00;81.20
981;DHT22;479;53.514;9.994;2022-08-01T15:52:51;20.80;85.80
981;DHT22;479;53.514;9.994;2022-08-01T15:55:18;20.80;90.10
981;DHT22;479;53.514;9.994;2022-08-01T15:57:45;20.80;90.30
981;DHT22;479;53.514;9.994;2022-08-01T16:00:14;21.00;90.70
981;DHT22;479;53.514;9.994;2022-08-01T16:02:41;21.00;90.90
981;DHT22;479;53.514;9.994;2022-08-01T16:05:08;20.90;89.90
981;DHT22;479;53.514;9.994;2022-08-01T16:07:35;20.90;91.70
981;DHT22;479;53.514;9.994;2022-08-01T16:10:03;20.90;92.90
981;DHT22;479;53.514;9.994;2022-08-01T16:12:30;20.80;93.70
981;DHT22;479;53.514;9.994;2022-08-01T16:14:57;20.90;91.60
981;DHT22;479;53.514;9.994;2022-08-01T16:17:25;20.80;90.00
981;DHT22;479;53.514;9.994;2022-08-01T16:19:52;20.60;89.70
981;DHT22;479;53.514;9.994;2022-08-01T16:22:19;20.50;90.90
981;DHT22;479;53.514;9.994;2022-08-01T16:24:46;20.40;91.70
981;DHT22;479;53.514;9.994;2022-08-01T16:27:13;20.50;93.30
981;DHT22;479;53.514;9.994;2022-08-01T16:29:40;20.50;93.50
981;DHT22;479;53.514;9.994;2022-08-01T16:32:07;20.50;94.20
981;DHT22;479;53.514;9.994;2022-08-01T16:34:35;20.50;94.70
981;DHT22;479;53.514;9.994;2022-08-01T16:37:02;20.50;95.00
981;DHT22;479;53.514;9.994;2022-08-01T16:39:29;20.50;95.20
981;DHT22;479;53.514;9.994;2022-08-01T16:41:57;20.40;96.20
981;DHT22;479;53.514;9.994;2022-08-01T16:44:23;20.50;97.10
981;DHT22;479;53.514;9.994;2022-08-01T16:46:50;20.50;96.50